Accueil
METAR-TAF:

METAR-TAF

Aéroports :

Florennes, Belgique

Base aérienne de Florennes

latitude: 50-14N, longitude: 004-39E, altitude: 279 m

Observation

Le bulletin a été fait il y a 12 minutes, à 09:25 UTC
Vent 8 kt de sud-est
Température 23°C
Humidité 33%
Pression 1026 hPa
Visibilité 10 km ou plus
Nuages épars à une hauteur de 25000 ft

METAR: EBFS 190925Z 14008KT 9999 SCT250 23/06 Q1026 BLU BLU

Heure: 11:37 (09:37 UTC)

Prévision

Le bulletin a été fait il y a 56 minutes, à 08:41 UTC
Prévision valable du 19 à 10 UTC au 19 à 19 UTC
Vent 10 kt de est/sud-est
Visibilité 10 km ou plus
Nuages épars à une hauteur de 38000 ft

TAF: EBFS 190841Z 1910/1919 12010KT 9999 NSW SCT380

Observations et prévisions météorologiques de plus de 4000 aéroports (messages METAR et TAF).

Les stations disponibles sont représentées par des disques jaunes et rouges sur la carte.

Passer la souris dessus pour voir le nom de la station.

Cliquer dessus pour voir les observations et prévisions météorologiques.

Pour changer de carte: cliquez sur les boutons verts avec une croix noire pour zoomer, sur le bouton vert avec un tiret pour effectuer un zoom arrière, ou sur les flèches vertes pour les cartes adjacentes.


METAR-TAF: